createdAt,value
2022-10-06T00:00:40.000Z,95.30
2022-10-06T00:01:40.000Z,95.50
2022-10-06T00:02:40.000Z,95.61
2022-10-06T00:03:40.000Z,96.42
2022-10-06T00:04:40.000Z,96.52
2022-10-06T00:05:40.000Z,96.42
2022-10-06T00:06:40.000Z,96.77
2022-10-06T00:07:40.000Z,96.56
2022-10-06T00:08:39.000Z,96.26
2022-10-06T00:09:39.000Z,96.36
2022-10-06T00:10:39.000Z,96.97
2022-10-06T00:11:39.000Z,96.36
2022-10-06T00:12:39.000Z,96.26
2022-10-06T00:13:39.000Z,96.51
2022-10-06T00:14:39.000Z,96.30
2022-10-06T00:15:39.000Z,96.61
2022-10-06T00:16:39.000Z,97.32
2022-10-06T00:17:39.000Z,97.83
2022-10-06T00:18:39.000Z,99.52
2022-10-06T00:19:39.000Z,98.96
2022-10-06T00:20:39.000Z,97.80
2022-10-06T00:21:39.000Z,96.88
2022-10-06T00:22:39.000Z,96.63
2022-10-06T00:23:39.000Z,95.67
2022-10-06T00:24:39.000Z,94.96
2022-10-06T00:25:39.000Z,94.31
2022-10-06T00:26:39.000Z,93.80
2022-10-06T00:27:39.000Z,93.49
2022-10-06T00:28:39.000Z,93.09
2022-10-06T00:29:39.000Z,92.64
2022-10-06T00:30:39.000Z,92.24
2022-10-06T00:31:39.000Z,91.83
2022-10-06T00:32:39.000Z,91.63
2022-10-06T00:33:39.000Z,91.32
2022-10-06T00:34:39.000Z,91.08
2022-10-06T00:35:39.000Z,90.88
2022-10-06T00:36:39.000Z,90.67
2022-10-06T00:37:39.000Z,90.57
2022-10-06T00:38:39.000Z,90.47
2022-10-06T00:39:39.000Z,90.47
2022-10-06T00:40:39.000Z,90.36
2022-10-06T00:41:39.000Z,90.26
2022-10-06T00:42:39.000Z,90.26
2022-10-06T00:43:39.000Z,90.26
2022-10-06T00:44:39.000Z,90.26
2022-10-06T00:45:39.000Z,90.26
2022-10-06T00:46:39.000Z,90.26
2022-10-06T00:47:39.000Z,90.26
2022-10-06T00:48:39.000Z,90.36
2022-10-06T00:49:39.000Z,90.36
2022-10-06T00:50:39.000Z,90.57
2022-10-06T00:51:39.000Z,90.77
2022-10-06T00:52:39.000Z,90.77
2022-10-06T00:53:39.000Z,90.77
2022-10-06T00:54:39.000Z,90.67
2022-10-06T00:55:39.000Z,90.57
2022-10-06T00:56:39.000Z,90.57
2022-10-06T00:57:39.000Z,90.47
2022-10-06T00:58:39.000Z,90.22
2022-10-06T00:59:39.000Z,90.12
2022-10-06T01:00:39.000Z,89.92
2022-10-06T01:01:39.000Z,89.81
2022-10-06T01:02:39.000Z,89.61
2022-10-06T01:03:39.000Z,89.37
2022-10-06T01:04:39.000Z,89.21
2022-10-06T01:05:39.000Z,89.06
2022-10-06T01:06:39.000Z,88.86
2022-10-06T01:07:39.000Z,88.86
2022-10-06T01:08:39.000Z,88.86
2022-10-06T01:09:39.000Z,88.86
2022-10-06T01:10:39.000Z,88.76
2022-10-06T01:11:39.000Z,88.66
2022-10-06T01:12:39.000Z,88.66
2022-10-06T01:13:39.000Z,88.66
2022-10-06T01:14:39.000Z,88.66
2022-10-06T01:15:39.000Z,88.46
2022-10-06T01:16:39.000Z,88.46
2022-10-06T01:17:39.000Z,88.31
2022-10-06T01:18:39.000Z,88.21
2022-10-06T01:19:39.000Z,88.01
2022-10-06T01:20:39.000Z,87.91
2022-10-06T01:21:39.000Z,87.71
2022-10-06T01:22:38.000Z,87.71
2022-10-06T01:23:38.000Z,87.51
2022-10-06T01:24:38.000Z,87.51
2022-10-06T01:25:38.000Z,87.40
2022-10-06T01:26:38.000Z,87.30
2022-10-06T01:27:38.000Z,87.30
2022-10-06T01:28:38.000Z,87.20
2022-10-06T01:29:38.000Z,87.20
2022-10-06T01:30:38.000Z,87.10
2022-10-06T01:31:38.000Z,87.20
2022-10-06T01:32:38.000Z,87.20
2022-10-06T01:33:38.000Z,87.30
2022-10-06T01:34:38.000Z,87.30
2022-10-06T01:35:38.000Z,87.20
2022-10-06T01:36:38.000Z,87.40
2022-10-06T01:37:38.000Z,87.65
2022-10-06T01:38:38.000Z,87.95
2022-10-06T01:39:38.000Z,88.15
2022-10-06T01:40:38.000Z,88.15
2022-10-06T01:41:38.000Z,88.25
2022-10-06T01:42:38.000Z,88.60
2022-10-06T01:43:38.000Z,88.90
2022-10-06T01:44:38.000Z,88.90
2022-10-06T01:45:38.000Z,89.21
2022-10-06T01:46:38.000Z,89.41
2022-10-06T01:47:38.000Z,89.51
2022-10-06T01:48:38.000Z,89.51
2022-10-06T01:49:38.000Z,89.51
2022-10-06T01:50:38.000Z,89.41
2022-10-06T01:51:38.000Z,89.11
2022-10-06T01:52:38.000Z,89.01
2022-10-06T01:53:38.000Z,88.90
2022-10-06T01:54:38.000Z,88.76
2022-10-06T01:55:38.000Z,88.70
2022-10-06T01:56:38.000Z,88.70
2022-10-06T01:57:38.000Z,88.80
2022-10-06T01:58:38.000Z,88.90
2022-10-06T01:59:38.000Z,88.90
2022-10-06T02:00:38.000Z,88.80
2022-10-06T02:01:38.000Z,88.80
2022-10-06T02:02:38.000Z,89.01
2022-10-06T02:03:38.000Z,88.90
2022-10-06T02:04:38.000Z,88.90
2022-10-06T02:05:38.000Z,88.80
2022-10-06T02:06:38.000Z,88.80
2022-10-06T02:07:38.000Z,88.76
2022-10-06T02:08:38.000Z,88.80
2022-10-06T02:09:38.000Z,88.80
2022-10-06T02:10:38.000Z,88.90
2022-10-06T02:11:38.000Z,88.80
2022-10-06T02:12:38.000Z,88.90
2022-10-06T02:13:38.000Z,88.80
2022-10-06T02:14:38.000Z,88.90
2022-10-06T02:15:38.000Z,89.21
2022-10-06T02:16:38.000Z,89.31
2022-10-06T02:17:38.000Z,89.41
2022-10-06T02:18:38.000Z,89.51
2022-10-06T02:19:38.000Z,89.61
2022-10-06T02:20:38.000Z,89.61
2022-10-06T02:21:38.000Z,89.72
2022-10-06T02:22:38.000Z,89.76
2022-10-06T02:23:38.000Z,89.96
2022-10-06T02:24:38.000Z,90.06
2022-10-06T02:25:38.000Z,90.16
2022-10-06T02:26:38.000Z,90.26
2022-10-06T02:27:38.000Z,90.26
2022-10-06T02:28:38.000Z,90.36
2022-10-06T02:29:38.000Z,90.36
2022-10-06T02:30:38.000Z,90.57
2022-10-06T02:31:38.000Z,90.57
2022-10-06T02:32:38.000Z,90.47
2022-10-06T02:33:38.000Z,90.47
2022-10-06T02:34:38.000Z,90.57
2022-10-06T02:35:37.000Z,90.61
2022-10-06T02:36:37.000Z,90.71
2022-10-06T02:37:37.000Z,90.81
2022-10-06T02:38:37.000Z,90.92
2022-10-06T02:39:37.000Z,90.92
2022-10-06T02:40:37.000Z,90.92
2022-10-06T02:41:37.000Z,91.02
2022-10-06T02:42:37.000Z,91.22
2022-10-06T02:43:37.000Z,91.12
2022-10-06T02:44:37.000Z,91.12
2022-10-06T02:45:37.000Z,91.12
2022-10-06T02:46:37.000Z,91.12
2022-10-06T02:47:37.000Z,90.88
2022-10-06T02:48:37.000Z,90.77
2022-10-06T02:49:37.000Z,90.67
2022-10-06T02:50:37.000Z,90.47
2022-10-06T02:51:37.000Z,90.26
2022-10-06T02:52:37.000Z,90.02
2022-10-06T02:53:37.000Z,89.61
2022-10-06T02:54:37.000Z,89.37
2022-10-06T02:55:37.000Z,89.06
2022-10-06T02:56:37.000Z,88.76
2022-10-06T02:57:37.000Z,88.56
2022-10-06T02:58:37.000Z,88.31
2022-10-06T02:59:37.000Z,88.21
2022-10-06T03:00:37.000Z,88.11
2022-10-06T03:01:37.000Z,88.01
2022-10-06T03:02:37.000Z,87.91
2022-10-06T03:03:37.000Z,87.81
2022-10-06T03:04:37.000Z,87.81
2022-10-06T03:05:37.000Z,87.60
2022-10-06T03:06:37.000Z,87.60
2022-10-06T03:07:37.000Z,87.51
2022-10-06T03:08:37.000Z,87.36
2022-10-06T03:09:37.000Z,87.36
2022-10-06T03:10:37.000Z,87.16
2022-10-06T03:11:37.000Z,87.16
2022-10-06T03:12:37.000Z,87.05
2022-10-06T03:13:37.000Z,87.05
2022-10-06T03:14:37.000Z,87.05
2022-10-06T03:15:37.000Z,86.96
2022-10-06T03:16:37.000Z,86.96
2022-10-06T03:17:37.000Z,86.85
2022-10-06T03:18:37.000Z,86.76
2022-10-06T03:19:37.000Z,86.65
2022-10-06T03:20:37.000Z,86.51
2022-10-06T03:21:37.000Z,86.41
2022-10-06T03:22:37.000Z,86.41
2022-10-06T03:23:37.000Z,86.41
2022-10-06T03:24:37.000Z,86.41
2022-10-06T03:25:37.000Z,86.41
2022-10-06T03:26:37.000Z,86.31
2022-10-06T03:27:37.000Z,86.21
2022-10-06T03:28:37.000Z,86.21
2022-10-06T03:29:37.000Z,86.10
2022-10-06T03:30:37.000Z,86.21
2022-10-06T03:31:37.000Z,86.21
2022-10-06T03:32:37.000Z,86.21
2022-10-06T03:33:37.000Z,86.31
2022-10-06T03:34:37.000Z,86.31
2022-10-06T03:35:37.000Z,86.31
2022-10-06T03:36:37.000Z,86.41
2022-10-06T03:37:37.000Z,86.51
2022-10-06T03:38:37.000Z,86.51
2022-10-06T03:39:37.000Z,86.61
2022-10-06T03:40:37.000Z,86.76
2022-10-06T03:41:37.000Z,86.76
2022-10-06T03:42:37.000Z,86.71
2022-10-06T03:43:37.000Z,86.85
2022-10-06T03:44:37.000Z,86.85
2022-10-06T03:45:37.000Z,86.82
2022-10-06T03:46:37.000Z,86.91
2022-10-06T03:47:36.000Z,86.91
2022-10-06T03:48:36.000Z,86.96
2022-10-06T03:49:36.000Z,87.02
2022-10-06T03:50:36.000Z,87.02
2022-10-06T03:51:36.000Z,87.05
2022-10-06T03:52:36.000Z,87.02
2022-10-06T03:53:36.000Z,87.12
2022-10-06T03:54:36.000Z,87.16
2022-10-06T03:55:36.000Z,87.16
2022-10-06T03:56:36.000Z,87.26
2022-10-06T03:57:36.000Z,87.26
2022-10-06T03:58:36.000Z,87.16
2022-10-06T03:59:36.000Z,87.26
2022-10-06T04:00:36.000Z,87.26
2022-10-06T04:01:36.000Z,87.26
2022-10-06T04:02:36.000Z,87.26
2022-10-06T04:03:36.000Z,87.26
2022-10-06T04:04:36.000Z,87.26
2022-10-06T04:05:36.000Z,87.36
2022-10-06T04:06:36.000Z,87.36
2022-10-06T04:07:36.000Z,87.36
2022-10-06T04:08:36.000Z,87.56
2022-10-06T04:09:36.000Z,87.46
2022-10-06T04:10:36.000Z,87.56
2022-10-06T04:11:36.000Z,87.56
2022-10-06T04:12:36.000Z,87.56
2022-10-06T04:13:36.000Z,87.56
2022-10-06T04:14:36.000Z,87.66
2022-10-06T04:15:36.000Z,87.56
2022-10-06T04:16:36.000Z,87.66
2022-10-06T04:17:36.000Z,87.66
2022-10-06T04:18:36.000Z,87.66
2022-10-06T04:19:36.000Z,87.66
2022-10-06T04:20:36.000Z,87.66
2022-10-06T04:21:36.000Z,87.77
2022-10-06T04:22:36.000Z,87.66
2022-10-06T04:23:36.000Z,87.77
2022-10-06T04:24:36.000Z,87.77
2022-10-06T04:25:36.000Z,87.77
2022-10-06T04:26:36.000Z,87.87
2022-10-06T04:27:36.000Z,87.87
2022-10-06T04:28:36.000Z,88.07
2022-10-06T04:29:36.000Z,88.17
2022-10-06T04:30:36.000Z,88.27
2022-10-06T04:31:36.000Z,88.37
2022-10-06T04:32:36.000Z,88.17
2022-10-06T04:33:36.000Z,87.87
2022-10-06T04:34:36.000Z,87.77
2022-10-06T04:35:36.000Z,87.36
2022-10-06T04:36:36.000Z,87.16
2022-10-06T04:37:36.000Z,86.76
2022-10-06T04:38:36.000Z,87.00
2022-10-06T04:39:36.000Z,86.90
2022-10-06T04:40:36.000Z,86.79
2022-10-06T04:41:36.000Z,86.39
2022-10-06T04:42:36.000Z,85.99
2022-10-06T04:43:36.000Z,85.99
2022-10-06T04:44:36.000Z,85.88
2022-10-06T04:45:36.000Z,85.99
2022-10-06T04:46:36.000Z,86.08
2022-10-06T04:47:36.000Z,85.62
2022-10-06T04:48:36.000Z,85.11
2022-10-06T04:49:36.000Z,85.01
2022-10-06T04:50:36.000Z,85.11
2022-10-06T04:51:36.000Z,84.81
2022-10-06T04:52:36.000Z,84.91
2022-10-06T04:53:36.000Z,85.01
2022-10-06T04:54:36.000Z,84.61
2022-10-06T04:55:36.000Z,84.50
2022-10-06T04:56:36.000Z,84.61
2022-10-06T04:57:36.000Z,84.55
2022-10-06T04:58:36.000Z,84.85
2022-10-06T04:59:36.000Z,84.64
2022-10-06T05:00:35.000Z,84.64
2022-10-06T05:01:35.000Z,84.75
2022-10-06T05:02:35.000Z,84.85
2022-10-06T05:03:35.000Z,84.55
2022-10-06T05:04:35.000Z,84.85
2022-10-06T05:05:35.000Z,84.34
2022-10-06T05:06:35.000Z,84.44
2022-10-06T05:07:35.000Z,84.64
2022-10-06T05:08:35.000Z,84.75
2022-10-06T05:09:35.000Z,84.75
2022-10-06T05:10:35.000Z,84.85
2022-10-06T05:11:35.000Z,84.85
2022-10-06T05:12:35.000Z,84.75
2022-10-06T05:13:35.000Z,84.78
2022-10-06T05:14:35.000Z,85.05
2022-10-06T05:15:35.000Z,84.99
2022-10-06T05:16:35.000Z,84.99
2022-10-06T05:17:35.000Z,84.99
2022-10-06T05:18:35.000Z,85.19
2022-10-06T05:19:35.000Z,85.30
2022-10-06T05:20:35.000Z,85.50
2022-10-06T05:21:35.000Z,85.30
2022-10-06T05:22:35.000Z,85.30
2022-10-06T05:23:35.000Z,85.70
2022-10-06T05:24:35.000Z,85.70
2022-10-06T05:25:35.000Z,85.70
2022-10-06T05:26:35.000Z,85.80
2022-10-06T05:27:35.000Z,85.80
2022-10-06T05:28:35.000Z,86.10
2022-10-06T05:29:35.000Z,86.00
2022-10-06T05:30:35.000Z,86.00
2022-10-06T05:31:35.000Z,86.10
2022-10-06T05:32:35.000Z,86.21
2022-10-06T05:33:35.000Z,86.41
2022-10-06T05:34:35.000Z,86.82
2022-10-06T05:35:35.000Z,87.02
2022-10-06T05:36:35.000Z,87.83
2022-10-06T05:37:35.000Z,88.23
2022-10-06T05:38:35.000Z,88.84
2022-10-06T05:39:35.000Z,89.15
2022-10-06T05:40:35.000Z,89.59
2022-10-06T05:41:35.000Z,89.80
2022-10-06T05:42:35.000Z,90.00
2022-10-06T05:43:35.000Z,90.00
2022-10-06T05:44:35.000Z,90.00
2022-10-06T05:45:35.000Z,90.51
2022-10-06T05:46:35.000Z,90.41
2022-10-06T05:47:35.000Z,90.51
2022-10-06T05:48:35.000Z,90.55
2022-10-06T05:49:35.000Z,90.75
2022-10-06T05:50:35.000Z,91.06
2022-10-06T05:51:35.000Z,91.26
2022-10-06T05:52:35.000Z,91.36
2022-10-06T05:53:35.000Z,91.26
2022-10-06T05:54:35.000Z,91.47
2022-10-06T05:55:35.000Z,91.26
2022-10-06T05:56:35.000Z,91.47
2022-10-06T05:57:35.000Z,91.67
2022-10-06T05:58:35.000Z,91.67
2022-10-06T05:59:35.000Z,89.33
2022-10-06T06:00:35.000Z,88.12
2022-10-06T06:01:35.000Z,88.82
2022-10-06T06:02:35.000Z,87.51
2022-10-06T06:03:35.000Z,86.49
2022-10-06T06:04:35.000Z,86.43
2022-10-06T06:05:35.000Z,86.43
2022-10-06T06:06:35.000Z,87.34
2022-10-06T06:07:35.000Z,85.62
2022-10-06T06:08:35.000Z,87.49
2022-10-06T06:09:35.000Z,89.11
2022-10-06T06:10:35.000Z,90.23
2022-10-06T06:11:35.000Z,90.53
2022-10-06T06:12:35.000Z,90.53
2022-10-06T06:13:35.000Z,90.53
2022-10-06T06:14:34.000Z,91.14
2022-10-06T06:15:34.000Z,91.55
2022-10-06T06:16:34.000Z,91.65
2022-10-06T06:17:34.000Z,91.35
2022-10-06T06:18:34.000Z,91.45
2022-10-06T06:19:34.000Z,91.35
2022-10-06T06:20:34.000Z,90.64
2022-10-06T06:21:34.000Z,90.94
2022-10-06T06:22:34.000Z,91.25
2022-10-06T06:23:34.000Z,91.55
2022-10-06T06:24:34.000Z,91.25
2022-10-06T06:25:34.000Z,91.55
2022-10-06T06:26:34.000Z,91.65
2022-10-06T06:27:34.000Z,91.65
2022-10-06T06:28:34.000Z,91.65
2022-10-06T06:29:34.000Z,91.55
2022-10-06T06:30:34.000Z,91.86
2022-10-06T06:31:34.000Z,91.96
2022-10-06T06:32:34.000Z,91.65
2022-10-06T06:33:34.000Z,91.35
2022-10-06T06:34:34.000Z,91.51
2022-10-06T06:35:34.000Z,91.71
2022-10-06T06:36:34.000Z,91.51
2022-10-06T06:37:34.000Z,91.61
2022-10-06T06:38:34.000Z,91.51
2022-10-06T06:39:34.000Z,90.80
2022-10-06T06:40:34.000Z,91.00
2022-10-06T06:41:34.000Z,90.90
2022-10-06T06:42:34.000Z,91.00
2022-10-06T06:43:34.000Z,91.00
2022-10-06T06:44:34.000Z,90.90
2022-10-06T06:45:34.000Z,90.59
2022-10-06T06:46:34.000Z,90.90
2022-10-06T06:47:34.000Z,90.70
2022-10-06T06:48:34.000Z,90.49
2022-10-06T06:49:34.000Z,89.88
2022-10-06T06:50:34.000Z,90.19
2022-10-06T06:51:34.000Z,89.98
2022-10-06T06:52:34.000Z,89.88
2022-10-06T06:53:34.000Z,89.98
2022-10-06T06:54:34.000Z,90.09
2022-10-06T06:55:34.000Z,89.68
2022-10-06T06:56:34.000Z,89.78
2022-10-06T06:57:34.000Z,89.64
2022-10-06T06:58:34.000Z,89.94
2022-10-06T06:59:34.000Z,89.58
2022-10-06T07:00:34.000Z,89.78
2022-10-06T07:01:34.000Z,89.64
2022-10-06T07:02:34.000Z,89.84
2022-10-06T07:03:34.000Z,89.07
2022-10-06T07:04:34.000Z,89.23
2022-10-06T07:05:34.000Z,88.93
2022-10-06T07:06:34.000Z,88.73
2022-10-06T07:07:34.000Z,88.93
2022-10-06T07:08:34.000Z,88.62
2022-10-06T07:09:34.000Z,88.32
2022-10-06T07:10:34.000Z,88.46
2022-10-06T07:11:34.000Z,88.32
2022-10-06T07:12:34.000Z,88.32
2022-10-06T07:13:34.000Z,88.01
2022-10-06T07:14:34.000Z,88.12
2022-10-06T07:15:34.000Z,88.12
2022-10-06T07:16:34.000Z,87.71
2022-10-06T07:17:34.000Z,87.40
2022-10-06T07:18:34.000Z,87.40
2022-10-06T07:19:34.000Z,87.71
2022-10-06T07:20:34.000Z,87.71
2022-10-06T07:21:34.000Z,87.92
2022-10-06T07:22:34.000Z,87.30
2022-10-06T07:23:34.000Z,87.10
2022-10-06T07:24:34.000Z,87.04
2022-10-06T07:25:34.000Z,86.80
2022-10-06T07:26:34.000Z,87.00
2022-10-06T07:27:33.000Z,86.80
2022-10-06T07:28:33.000Z,86.69
2022-10-06T07:29:33.000Z,86.80
2022-10-06T07:30:33.000Z,86.49
2022-10-06T07:31:33.000Z,86.59
2022-10-06T07:32:33.000Z,86.39
2022-10-06T07:33:33.000Z,85.58
2022-10-06T07:34:33.000Z,85.38
2022-10-06T07:35:33.000Z,84.16
2022-10-06T07:36:33.000Z,83.75
2022-10-06T07:37:33.000Z,83.51
2022-10-06T07:38:33.000Z,82.29
2022-10-06T07:39:33.000Z,81.58
2022-10-06T07:40:33.000Z,81.27
2022-10-06T07:41:33.000Z,81.58
2022-10-06T07:42:33.000Z,80.46
2022-10-06T07:43:33.000Z,79.11
2022-10-06T07:44:33.000Z,78.70
2022-10-06T07:45:33.000Z,79.00
2022-10-06T07:46:33.000Z,79.51
2022-10-06T07:47:33.000Z,77.69
2022-10-06T07:48:33.000Z,77.28
2022-10-06T07:49:33.000Z,77.45
2022-10-06T07:50:33.000Z,77.34
2022-10-06T07:51:33.000Z,76.03
2022-10-06T07:52:33.000Z,76.84
2022-10-06T07:53:33.000Z,77.95
2022-10-06T07:54:33.000Z,76.84
2022-10-06T07:55:33.000Z,76.74
2022-10-06T07:56:33.000Z,76.33
2022-10-06T07:57:33.000Z,76.54
2022-10-06T07:58:33.000Z,76.80
2022-10-06T07:59:33.000Z,76.70
2022-10-06T08:00:33.000Z,76.90
2022-10-06T08:01:33.000Z,76.80
2022-10-06T08:02:33.000Z,77.31
2022-10-06T08:03:33.000Z,77.31
2022-10-06T08:04:33.000Z,76.70
2022-10-06T08:05:33.000Z,76.50
2022-10-06T08:06:33.000Z,76.60
2022-10-06T08:07:33.000Z,76.09
2022-10-06T08:08:33.000Z,77.01
2022-10-06T08:09:33.000Z,77.41
2022-10-06T08:10:33.000Z,76.60
2022-10-06T08:11:33.000Z,76.60
2022-10-06T08:12:33.000Z,76.29
2022-10-06T08:13:33.000Z,77.17
2022-10-06T08:14:33.000Z,77.68
2022-10-06T08:15:33.000Z,76.87
2022-10-06T08:16:33.000Z,76.97
2022-10-06T08:17:33.000Z,76.06
2022-10-06T08:18:33.000Z,74.74
2022-10-06T08:19:33.000Z,74.44
2022-10-06T08:20:33.000Z,74.81
2022-10-06T08:21:33.000Z,73.73
2022-10-06T08:22:33.000Z,73.29
2022-10-06T08:23:33.000Z,73.80
2022-10-06T08:24:33.000Z,73.80
2022-10-06T08:25:33.000Z,73.39
2022-10-06T08:26:33.000Z,73.46
2022-10-06T08:27:33.000Z,73.25
2022-10-06T08:28:33.000Z,72.11
2022-10-06T08:29:33.000Z,70.96
2022-10-06T08:30:33.000Z,69.71
2022-10-06T08:31:33.000Z,69.55
2022-10-06T08:32:33.000Z,68.98
2022-10-06T08:33:33.000Z,68.67
2022-10-06T08:34:33.000Z,69.01
2022-10-06T08:35:33.000Z,68.98
2022-10-06T08:36:33.000Z,68.57
2022-10-06T08:37:33.000Z,67.66
2022-10-06T08:38:33.000Z,68.07
2022-10-06T08:39:33.000Z,67.63
2022-10-06T08:40:32.000Z,67.70
2022-10-06T08:41:32.000Z,67.19
2022-10-06T08:42:32.000Z,67.27
2022-10-06T08:43:32.000Z,66.86
2022-10-06T08:44:32.000Z,66.56
2022-10-06T08:45:32.000Z,66.46
2022-10-06T08:46:32.000Z,67.07
2022-10-06T08:47:32.000Z,66.36
2022-10-06T08:48:32.000Z,66.25
2022-10-06T08:49:32.000Z,66.29
2022-10-06T08:50:32.000Z,66.89
2022-10-06T08:51:32.000Z,66.79
2022-10-06T08:52:32.000Z,65.48
2022-10-06T08:53:32.000Z,65.08
2022-10-06T08:54:32.000Z,65.08
2022-10-06T08:55:32.000Z,65.99
2022-10-06T08:56:32.000Z,66.69
2022-10-06T08:57:32.000Z,65.88
2022-10-06T08:58:32.000Z,66.08
2022-10-06T08:59:32.000Z,65.38
2022-10-06T09:00:32.000Z,64.47
2022-10-06T09:01:32.000Z,65.11
2022-10-06T09:02:32.000Z,64.70
2022-10-06T09:03:32.000Z,64.67
2022-10-06T09:04:32.000Z,65.28
2022-10-06T09:05:32.000Z,65.28
2022-10-06T09:06:32.000Z,65.88
2022-10-06T09:07:32.000Z,66.89
2022-10-06T09:08:32.000Z,66.42
2022-10-06T09:09:32.000Z,66.52
2022-10-06T09:10:32.000Z,67.86
2022-10-06T09:11:32.000Z,67.26
2022-10-06T09:12:32.000Z,68.30
2022-10-06T09:13:32.000Z,67.69
2022-10-06T09:14:32.000Z,67.49
2022-10-06T09:15:32.000Z,66.38
2022-10-06T09:16:32.000Z,67.22
2022-10-06T09:17:32.000Z,65.61
2022-10-06T09:18:32.000Z,64.39
2022-10-06T09:19:32.000Z,64.93
2022-10-06T09:20:32.000Z,64.32
2022-10-06T09:21:32.000Z,64.19
2022-10-06T09:22:32.000Z,64.52
2022-10-06T09:23:32.000Z,65.23
2022-10-06T09:24:32.000Z,65.53
2022-10-06T09:25:32.000Z,65.03
2022-10-06T09:26:32.000Z,65.64
2022-10-06T09:27:32.000Z,65.33
2022-10-06T09:28:32.000Z,64.93
2022-10-06T09:29:32.000Z,64.62
2022-10-06T09:30:32.000Z,64.12
2022-10-06T09:31:32.000Z,63.51
2022-10-06T09:32:32.000Z,64.22
2022-10-06T09:33:32.000Z,65.23
2022-10-06T09:34:32.000Z,64.62
2022-10-06T09:35:32.000Z,64.32
2022-10-06T09:36:32.000Z,64.42
2022-10-06T09:37:32.000Z,63.81
2022-10-06T09:38:32.000Z,64.32
2022-10-06T09:39:32.000Z,64.12
2022-10-06T09:40:32.000Z,63.89
2022-10-06T09:41:32.000Z,65.00
2022-10-06T09:42:32.000Z,64.56
2022-10-06T09:43:32.000Z,63.45
2022-10-06T09:44:32.000Z,63.82
2022-10-06T09:45:32.000Z,63.32
2022-10-06T09:46:32.000Z,63.02
2022-10-06T09:47:32.000Z,62.68
2022-10-06T09:48:32.000Z,60.97
2022-10-06T09:49:32.000Z,61.55
2022-10-06T09:50:32.000Z,61.72
2022-10-06T09:51:32.000Z,60.00
2022-10-06T09:52:32.000Z,59.50
2022-10-06T09:53:31.000Z,59.40
2022-10-06T09:54:31.000Z,60.41
2022-10-06T09:55:31.000Z,60.03
2022-10-06T09:56:31.000Z,60.74
2022-10-06T09:57:31.000Z,60.24
2022-10-06T09:58:31.000Z,60.33
2022-10-06T09:59:31.000Z,59.73
2022-10-06T10:00:31.000Z,60.41
2022-10-06T10:01:31.000Z,60.10
2022-10-06T10:02:31.000Z,59.40
2022-10-06T10:03:31.000Z,59.84
2022-10-06T10:04:31.000Z,58.64
2022-10-06T10:05:31.000Z,59.47
2022-10-06T10:06:31.000Z,59.97
2022-10-06T10:07:31.000Z,59.44
2022-10-06T10:08:31.000Z,59.72
2022-10-06T10:09:31.000Z,58.21
2022-10-06T10:10:31.000Z,59.28
2022-10-06T10:11:31.000Z,59.33
2022-10-06T10:12:31.000Z,57.39
2022-10-06T10:13:31.000Z,57.06
2022-10-06T10:14:31.000Z,55.93
2022-10-06T10:15:31.000Z,55.33
2022-10-06T10:16:31.000Z,55.10
2022-10-06T10:17:31.000Z,55.93
2022-10-06T10:18:31.000Z,55.23
2022-10-06T10:19:31.000Z,55.93
2022-10-06T10:20:31.000Z,56.86
2022-10-06T10:21:31.000Z,55.86
2022-10-06T10:22:31.000Z,55.73
2022-10-06T10:23:31.000Z,55.20
2022-10-06T10:24:31.000Z,55.51
2022-10-06T10:25:31.000Z,54.75
2022-10-06T10:26:31.000Z,54.38
2022-10-06T10:27:31.000Z,55.28
2022-10-06T10:28:31.000Z,55.23
2022-10-06T10:29:31.000Z,54.00
2022-10-06T10:30:31.000Z,53.07
2022-10-06T10:31:31.000Z,53.02
2022-10-06T10:32:31.000Z,52.32
2022-10-06T10:33:31.000Z,52.49
2022-10-06T10:34:31.000Z,51.46
2022-10-06T10:35:31.000Z,52.07
2022-10-06T10:36:31.000Z,50.34
2022-10-06T10:37:31.000Z,50.84
2022-10-06T10:38:31.000Z,49.32
2022-10-06T10:39:31.000Z,49.41
2022-10-06T10:40:31.000Z,49.41
2022-10-06T10:41:31.000Z,49.54
2022-10-06T10:42:31.000Z,49.91
2022-10-06T10:43:31.000Z,49.79
2022-10-06T10:44:31.000Z,48.79
2022-10-06T10:45:31.000Z,48.42
2022-10-06T10:46:31.000Z,48.61
2022-10-06T10:47:31.000Z,48.72
2022-10-06T10:48:31.000Z,49.19
2022-10-06T10:49:31.000Z,48.90
2022-10-06T10:50:31.000Z,49.40
2022-10-06T10:51:31.000Z,48.10
2022-10-06T10:52:31.000Z,48.29
2022-10-06T10:53:31.000Z,49.09
2022-10-06T10:54:31.000Z,48.60
2022-10-06T10:55:31.000Z,48.69
2022-10-06T10:56:31.000Z,48.87
2022-10-06T10:57:31.000Z,48.17
2022-10-06T10:58:31.000Z,48.49
2022-10-06T10:59:31.000Z,48.27
2022-10-06T11:00:31.000Z,48.37
2022-10-06T11:01:31.000Z,47.77
2022-10-06T11:02:31.000Z,48.77
2022-10-06T11:03:31.000Z,49.07
2022-10-06T11:04:31.000Z,49.02
2022-10-06T11:05:31.000Z,49.14
2022-10-06T11:06:30.000Z,49.66
2022-10-06T11:07:30.000Z,49.46
2022-10-06T11:08:30.000Z,50.16
2022-10-06T11:09:30.000Z,49.37
2022-10-06T11:10:30.000Z,49.57
2022-10-06T11:11:30.000Z,49.84
2022-10-06T11:12:30.000Z,48.44
2022-10-06T11:13:30.000Z,48.52
2022-10-06T11:14:30.000Z,49.02
2022-10-06T11:15:30.000Z,48.10
2022-10-06T11:16:30.000Z,48.61
2022-10-06T11:17:30.000Z,48.32
2022-10-06T11:18:30.000Z,47.84
2022-10-06T11:19:30.000Z,47.74
2022-10-06T11:20:30.000Z,48.34
2022-10-06T11:21:30.000Z,47.74
2022-10-06T11:22:30.000Z,48.44
2022-10-06T11:23:30.000Z,47.84
2022-10-06T11:24:30.000Z,47.52
2022-10-06T11:25:30.000Z,48.60
2022-10-06T11:26:30.000Z,47.89
2022-10-06T11:27:30.000Z,47.47
2022-10-06T11:28:30.000Z,47.17
2022-10-06T11:29:30.000Z,46.77
2022-10-06T11:30:30.000Z,47.95
2022-10-06T11:31:30.000Z,46.25
2022-10-06T11:32:30.000Z,46.17
2022-10-06T11:33:30.000Z,46.59
2022-10-06T11:34:30.000Z,46.89
2022-10-06T11:35:30.000Z,46.89
2022-10-06T11:36:30.000Z,47.19
2022-10-06T11:37:30.000Z,45.69
2022-10-06T11:38:30.000Z,46.19
2022-10-06T11:39:30.000Z,45.69
2022-10-06T11:40:30.000Z,45.69
2022-10-06T11:41:30.000Z,46.62
2022-10-06T11:42:30.000Z,46.42
2022-10-06T11:43:30.000Z,46.62
2022-10-06T11:44:30.000Z,46.92
2022-10-06T11:45:30.000Z,46.01
2022-10-06T11:46:30.000Z,45.81
2022-10-06T11:47:30.000Z,45.72
2022-10-06T11:48:30.000Z,46.89
2022-10-06T11:49:30.000Z,46.30
2022-10-06T11:50:30.000Z,46.27
2022-10-06T11:51:30.000Z,45.57
2022-10-06T11:52:30.000Z,46.39
2022-10-06T11:53:30.000Z,44.79
2022-10-06T11:54:30.000Z,44.71
2022-10-06T11:55:30.000Z,44.82
2022-10-06T11:56:30.000Z,44.54
2022-10-06T11:57:30.000Z,44.93
2022-10-06T11:58:30.000Z,44.54
2022-10-06T11:59:30.000Z,44.93
2022-10-06T12:00:30.000Z,45.04
2022-10-06T12:01:30.000Z,45.04
2022-10-06T12:02:30.000Z,46.31
2022-10-06T12:03:30.000Z,45.72
2022-10-06T12:04:30.000Z,46.42
2022-10-06T12:05:30.000Z,46.42
2022-10-06T12:06:30.000Z,45.92
2022-10-06T12:07:30.000Z,46.30
2022-10-06T12:08:30.000Z,45.59
2022-10-06T12:09:30.000Z,44.51
2022-10-06T12:10:30.000Z,45.01
2022-10-06T12:11:30.000Z,45.21
2022-10-06T12:12:30.000Z,45.24
2022-10-06T12:13:30.000Z,44.13
2022-10-06T12:14:30.000Z,45.54
2022-10-06T12:15:30.000Z,45.43
2022-10-06T12:16:30.000Z,44.74
2022-10-06T12:17:30.000Z,45.24
2022-10-06T12:18:30.000Z,43.63
2022-10-06T12:19:29.000Z,43.63
2022-10-06T12:20:29.000Z,44.24
2022-10-06T12:21:29.000Z,44.21
2022-10-06T12:22:29.000Z,44.34
2022-10-06T12:23:29.000Z,44.13
2022-10-06T12:24:29.000Z,43.74
2022-10-06T12:25:29.000Z,44.34
2022-10-06T12:26:29.000Z,44.34
2022-10-06T12:27:29.000Z,45.42
2022-10-06T12:28:29.000Z,44.59
2022-10-06T12:29:29.000Z,43.49
2022-10-06T12:30:29.000Z,43.70
2022-10-06T12:31:29.000Z,43.59
2022-10-06T12:32:29.000Z,44.29
2022-10-06T12:33:29.000Z,43.29
2022-10-06T12:34:29.000Z,43.59
2022-10-06T12:35:29.000Z,43.91
2022-10-06T12:36:29.000Z,43.91
2022-10-06T12:37:29.000Z,44.42
2022-10-06T12:38:29.000Z,44.21
2022-10-06T12:39:29.000Z,42.99
2022-10-06T12:40:29.000Z,42.29
2022-10-06T12:41:29.000Z,42.10
2022-10-06T12:42:29.000Z,41.89
2022-10-06T12:43:29.000Z,42.41
2022-10-06T12:44:29.000Z,43.09
2022-10-06T12:45:29.000Z,42.90
2022-10-06T12:46:29.000Z,43.29
2022-10-06T12:47:29.000Z,43.67
2022-10-06T12:48:29.000Z,42.69
2022-10-06T12:49:29.000Z,43.09
2022-10-06T12:50:29.000Z,43.40
2022-10-06T12:51:29.000Z,43.48
2022-10-06T12:52:29.000Z,43.07